Time;durP1;ratioP1;P1;durP2;ratioP2;P2;SDS_P1;SDS_P2;PMS_P1;PMS_P2;Temp;Humidity;BMP_temperature;BMP_pressure;BME280_temperature;BME280_humidity;BME280_pressure;Samples;Min_cycle;Max_cycle;Signal;HPM_P1;HPM_P2
2023/12/02 00:01:02;;;;;;;4.30;1.30;;;;;;;14.17;55.35;93969.91;106772;1276;22654;-77
2023/12/02 00:03:33;;;;;;;12.50;1.40;;;;;;;14.19;55.49;93968.02;106717;1276;22654;-78
2023/12/02 00:06:05;;;;;;;5.60;1.60;;;;;;;14.18;55.32;93974.27;106476;1276;22654;-79
2023/12/02 00:08:33;;;;;;;3.20;1.00;;;;;;;14.24;54.76;93977.27;106677;1276;22543;-78
2023/12/02 00:11:02;;;;;;;3.40;1.00;;;;;;;14.32;54.58;93972.75;106769;1276;22506;-77
2023/12/02 00:13:30;;;;;;;3.90;1.00;;;;;;;14.39;54.35;93965.75;106752;1276;22519;-79
2023/12/02 00:15:58;;;;;;;6.00;1.20;;;;;;;14.55;54.10;93974.40;106777;1276;25400;-77
2023/12/02 00:18:26;;;;;;;2.90;1.40;;;;;;;14.66;53.71;93973.75;106647;1276;24274;-79
2023/12/02 00:20:55;;;;;;;7.30;1.30;;;;;;;14.71;53.47;93972.92;106554;1276;25387;-78
2023/12/02 00:23:23;;;;;;;6.80;1.00;;;;;;;14.68;53.80;93969.55;106556;1276;22530;-79
2023/12/02 00:25:52;;;;;;;3.80;1.40;;;;;;;14.63;53.76;93971.81;106712;1276;24267;-77
2023/12/02 00:28:20;;;;;;;5.10;1.30;;;;;;;14.73;52.97;93967.88;106566;1276;22684;-78
2023/12/02 00:30:48;;;;;;;7.40;2.10;;;;;;;14.79;53.11;93973.02;106616;1276;22735;-79
2023/12/02 00:33:16;;;;;;;4.50;1.10;;;;;;;14.76;53.00;93968.38;106701;1276;25420;-78
2023/12/02 00:35:44;;;;;;;5.90;1.40;;;;;;;14.80;53.07;93967.24;106626;1276;22520;-78
2023/12/02 00:38:13;;;;;;;3.50;1.00;;;;;;;14.77;53.51;93962.11;106791;1276;25251;-77
2023/12/02 00:40:41;;;;;;;7.30;1.30;;;;;;;14.59;53.98;93963.92;106722;1276;25841;-79
2023/12/02 00:43:09;;;;;;;5.10;1.40;;;;;;;14.47;53.88;93958.95;106557;1276;25331;-77
2023/12/02 00:45:37;;;;;;;1.80;0.80;;;;;;;14.49;53.56;93971.51;106626;1276;25293;-79
2023/12/02 00:48:06;;;;;;;6.50;1.20;;;;;;;14.66;52.87;93971.80;106494;1276;22517;-78
2023/12/02 00:50:34;;;;;;;5.40;1.30;;;;;;;14.77;52.81;93974.48;106800;1276;25252;-78
2023/12/02 00:53:02;;;;;;;4.80;1.30;;;;;;;14.90;52.44;93969.11;106806;1255;25690;-79
2023/12/02 00:55:30;;;;;;;3.30;1.20;;;;;;;14.97;52.33;93965.69;106779;1276;22668;-77
2023/12/02 00:57:58;;;;;;;5.50;1.60;;;;;;;14.91;52.19;93967.05;106529;1276;22533;-78
2023/12/02 01:00:26;;;;;;;3.60;1.30;;;;;;;14.91;52.40;93963.39;106847;1276;24228;-77
2023/12/02 01:02:55;;;;;;;6.60;1.30;;;;;;;14.84;52.64;93966.61;106576;1276;22549;-78
2023/12/02 01:05:23;;;;;;;8.60;1.60;;;;;;;14.81;52.42;93952.32;106761;1276;22565;-77
2023/12/02 01:07:51;;;;;;;3.70;1.30;;;;;;;14.78;52.82;93963.27;106669;1276;22560;-78
2023/12/02 01:10:20;;;;;;;2.80;1.10;;;;;;;14.73;53.00;93968.95;106505;1276;22518;-78
2023/12/02 01:12:48;;;;;;;4.00;1.20;;;;;;;14.68;53.34;93975.58;106567;1275;24281;-78
2023/12/02 01:15:17;;;;;;;5.50;1.10;;;;;;;14.68;53.40;93962.30;106559;1275;22526;-77
2023/12/02 01:17:45;;;;;;;5.60;1.20;;;;;;;14.67;53.60;93969.95;106741;1276;22526;-77
2023/12/02 01:20:13;;;;;;;6.20;1.20;;;;;;;14.57;53.89;93977.86;106800;1265;22523;-77
2023/12/02 01:22:42;;;;;;;3.80;1.30;;;;;;;14.51;54.12;93971.25;106676;1276;22526;-77
2023/12/02 01:25:10;;;;;;;7.10;1.30;;;;;;;14.42;54.38;93974.79;106478;1276;22530;-76
2023/12/02 01:27:38;;;;;;;6.30;1.20;;;;;;;14.44;53.77;93980.35;106619;1276;23895;-78
2023/12/02 01:30:06;;;;;;;6.40;1.40;;;;;;;14.42;54.12;93982.58;106553;1276;22520;-78
2023/12/02 01:32:34;;;;;;;5.40;1.70;;;;;;;14.32;54.11;93979.10;106571;1276;24272;-79
2023/12/02 01:35:03;;;;;;;6.20;1.60;;;;;;;14.37;53.89;93978.81;106609;1276;25412;-78
2023/12/02 01:37:31;;;;;;;7.40;1.60;;;;;;;14.51;53.78;93973.55;106650;1276;22577;-77
2023/12/02 01:40:00;;;;;;;5.00;1.30;;;;;;;14.48;53.68;93965.95;106625;1276;22643;-78
2023/12/02 01:42:28;;;;;;;6.80;1.40;;;;;;;14.48;53.49;93971.06;106564;1276;25568;-79
2023/12/02 01:44:57;;;;;;;3.60;1.00;;;;;;;14.51;53.37;93974.96;106657;1276;25352;-77
2023/12/02 01:47:25;;;;;;;5.40;1.30;;;;;;;14.57;53.13;93968.09;106685;1276;22621;-77
2023/12/02 01:49:56;;;;;;;4.30;1.30;;;;;;;14.55;53.39;93964.68;106747;1276;25366;-78
2023/12/02 01:52:24;;;;;;;8.00;1.60;;;;;;;14.48;53.80;93949.49;106361;1276;22549;-77
2023/12/02 01:54:53;;;;;;;5.70;1.60;;;;;;;14.37;54.12;93951.23;106458;1265;22656;-76
2023/12/02 01:57:21;;;;;;;5.40;1.30;;;;;;;14.42;53.36;93945.44;106795;1276;22519;-77
2023/12/02 01:59:54;;;;;;;8.20;1.30;;;;;;;14.58;52.62;93942.17;106545;1276;22680;-78
2023/12/02 02:02:25;;;;;;;;;;;;;;;14.65;52.51;93939.27;106737;1276;24443;-78
2023/12/02 02:04:54;;;;;;;8.70;1.50;;;;;;;14.60;52.80;93941.00;106803;1276;25305;-77
2023/12/02 02:07:22;;;;;;;5.40;1.20;;;;;;;14.61;52.16;93938.30;106805;1276;25362;-78
2023/12/02 02:09:50;;;;;;;7.10;2.20;;;;;;;14.63;52.07;93953.08;106670;1276;22535;-80
2023/12/02 02:12:19;;;;;;;6.20;1.10;;;;;;;14.84;51.85;93942.36;106471;1276;24281;-77
2023/12/02 02:14:47;;;;;;;3.10;0.90;;;;;;;14.89;51.69;93934.83;106578;1276;25369;-79
2023/12/02 02:17:16;;;;;;;5.10;1.70;;;;;;;14.97;51.61;93932.58;106555;1276;24232;-78
2023/12/02 02:19:44;;;;;;;5.60;1.50;;;;;;;14.92;51.71;93929.13;106732;1276;22650;-77
2023/12/02 02:22:12;;;;;;;3.40;1.30;;;;;;;14.82;52.11;93941.09;106732;1276;25037;-78
2023/12/02 02:24:41;;;;;;;3.90;1.00;;;;;;;14.81;51.78;93931.62;106782;1254;25631;-80
2023/12/02 02:27:09;;;;;;;6.30;1.40;;;;;;;14.89;51.69;93938.33;106774;1276;22657;-78
2023/12/02 02:29:37;;;;;;;5.00;1.20;;;;;;;14.96;51.62;93928.21;106547;1276;22646;-80
2023/12/02 02:32:05;;;;;;;5.60;1.10;;;;;;;14.90;51.54;93928.41;106598;1276;22594;-78
2023/12/02 02:34:34;;;;;;;3.70;1.90;;;;;;;14.87;51.84;93927.86;106573;1276;22539;-78
2023/12/02 02:37:02;;;;;;;4.30;1.20;;;;;;;14.84;51.82;93928.08;106317;1276;24225;-78
2023/12/02 02:39:31;;;;;;;6.50;1.20;;;;;;;14.88;51.93;93914.70;106692;1276;22520;-77
2023/12/02 02:42:05;;;;;;;4.80;1.30;;;;;;;14.82;51.86;93920.04;106634;1276;24289;-77
2023/12/02 02:44:38;;;;;;;4.40;1.20;;;;;;;14.81;51.94;93916.41;106852;1276;24247;-77
2023/12/02 02:47:06;;;;;;;7.90;1.20;;;;;;;14.82;51.62;93912.28;106779;1276;22636;-80
2023/12/02 02:49:34;;;;;;;4.90;1.10;;;;;;;14.74;52.23;93909.92;106811;1276;24226;-79
2023/12/02 02:52:03;;;;;;;5.40;1.50;;;;;;;14.72;52.08;93917.80;106826;1276;24318;-82
2023/12/02 02:54:31;;;;;;;4.50;1.20;;;;;;;14.77;51.54;93920.75;106580;1276;24279;-78
2023/12/02 02:57:00;;;;;;;4.70;1.60;;;;;;;14.78;52.20;93918.86;106528;1274;22657;-80
2023/12/02 02:59:28;;;;;;;5.30;1.10;;;;;;;14.73;51.93;93906.95;106790;1276;24368;-79
2023/12/02 03:01:56;;;;;;;3.70;1.20;;;;;;;14.72;52.23;93904.23;106572;1276;22530;-78
2023/12/02 03:04:25;;;;;;;3.50;1.10;;;;;;;14.64;52.41;93908.55;106330;1276;25426;-78
2023/12/02 03:06:53;;;;;;;6.80;1.60;;;;;;;14.58;52.38;93911.38;106484;1276;25311;-77
2023/12/02 03:09:21;;;;;;;7.90;1.40;;;;;;;14.63;52.45;93917.33;106619;1276;25746;-78
2023/12/02 03:11:50;;;;;;;5.80;1.10;;;;;;;14.70;52.37;93920.41;106701;1276;23851;-78
2023/12/02 03:14:18;;;;;;;5.70;1.20;;;;;;;14.68;52.73;93915.75;106474;1276;22527;-78
2023/12/02 03:16:47;;;;;;;6.10;1.50;;;;;;;14.58;52.80;93916.38;106567;1276;24478;-78
2023/12/02 03:19:17;;;;;;;3.00;1.10;;;;;;;14.62;52.33;93913.30;106629;1276;22695;-76
2023/12/02 03:21:45;;;;;;;5.30;0.90;;;;;;;14.69;52.31;93918.66;106605;1276;24646;-77
2023/12/02 03:24:13;;;;;;;6.90;1.20;;;;;;;14.88;51.59;93918.75;106560;1276;22541;-79
2023/12/02 03:26:41;;;;;;;4.10;1.20;;;;;;;15.01;51.34;93908.61;106644;1276;22527;-77
2023/12/02 03:29:09;;;;;;;1.90;1.10;;;;;;;14.96;51.91;93906.06;106768;1274;22540;-78
2023/12/02 03:31:38;;;;;;;4.30;1.10;;;;;;;14.76;52.78;93905.37;106673;1276;22641;-77
2023/12/02 03:34:06;;;;;;;4.70;1.00;;;;;;;14.59;53.09;93907.28;106608;1276;24254;-79
2023/12/02 03:36:35;;;;;;;8.10;1.30;;;;;;;14.67;52.67;93909.27;106655;1276;24235;-79
2023/12/02 03:39:03;;;;;;;4.30;1.00;;;;;;;14.65;52.94;93899.67;106603;1276;22652;-77
2023/12/02 03:41:32;;;;;;;4.70;1.10;;;;;;;14.79;51.97;93901.30;106599;1276;25529;-78
2023/12/02 03:44:00;;;;;;;5.00;1.30;;;;;;;14.83;52.22;93895.52;106560;1276;25339;-78
2023/12/02 03:46:28;;;;;;;6.20;1.40;;;;;;;14.82;52.25;93895.94;106674;1276;24293;-78
2023/12/02 03:48:57;;;;;;;4.90;1.00;;;;;;;14.85;52.42;93897.17;106703;1276;25374;-77
2023/12/02 03:51:26;;;;;;;8.30;1.80;;;;;;;14.92;51.68;93896.74;106667;1276;25557;-78
2023/12/02 03:53:54;;;;;;;2.30;1.00;;;;;;;14.96;51.73;93900.21;106501;1276;22523;-77
2023/12/02 03:56:24;;;;;;;6.90;1.50;;;;;;;14.93;52.09;93895.11;106698;1269;24272;-77
2023/12/02 03:58:52;;;;;;;5.40;1.10;;;;;;;14.83;52.12;93896.40;106825;1265;22525;-77
2023/12/02 04:01:21;;;;;;;4.30;0.90;;;;;;;14.86;52.01;93897.66;106730;1276;22552;-79
2023/12/02 04:03:50;;;;;;;6.60;1.10;;;;;;;14.99;51.61;93893.85;106796;1276;24055;-78
2023/12/02 04:06:18;;;;;;;4.60;1.30;;;;;;;15.14;51.07;93895.35;106840;1276;23899;-78
2023/12/02 04:08:46;;;;;;;5.20;1.30;;;;;;;15.21;51.11;93896.56;106783;1276;22644;-78
2023/12/02 04:11:14;;;;;;;8.50;1.40;;;;;;;15.21;50.42;93895.28;106756;1276;22523;-79
2023/12/02 04:13:42;;;;;;;5.80;1.60;;;;;;;15.30;50.16;93906.56;106569;1276;25636;-78
2023/12/02 04:16:11;;;;;;;6.60;1.60;;;;;;;15.33;50.31;93902.27;106609;1271;22475;-79
2023/12/02 04:18:39;;;;;;;8.00;1.70;;;;;;;15.42;49.92;93898.02;106571;1276;22622;-77
2023/12/02 04:21:08;;;;;;;8.50;2.90;;;;;;;15.47;49.97;93891.34;106570;1276;24769;-82
2023/12/02 04:23:37;;;;;;;7.80;2.30;;;;;;;15.39;50.20;93895.54;106894;1276;22730;-77
2023/12/02 04:26:08;;;;;;;4.80;1.50;;;;;;;15.36;50.32;93892.87;106693;1276;24232;-76
2023/12/02 04:28:37;;;;;;;3.70;1.20;;;;;;;15.36;50.19;93893.77;106790;1276;24269;-76
2023/12/02 04:31:05;;;;;;;4.60;1.40;;;;;;;15.41;50.17;93882.65;106785;1276;24301;-78
2023/12/02 04:33:33;;;;;;;5.30;1.20;;;;;;;15.39;50.18;93883.50;106577;1276;22839;-78
2023/12/02 04:36:02;;;;;;;3.60;1.70;;;;;;;15.38;50.10;93885.67;106464;1276;24403;-77
2023/12/02 04:38:30;;;;;;;6.00;1.20;;;;;;;15.40;49.86;93892.45;106587;1276;22664;-78
2023/12/02 04:40:59;;;;;;;4.20;0.90;;;;;;;15.44;49.37;93882.28;106568;1276;22550;-77
2023/12/02 04:43:27;;;;;;;7.40;1.00;;;;;;;15.52;48.73;93885.52;106398;1276;23082;-77
2023/12/02 04:45:55;;;;;;;5.10;1.70;;;;;;;15.59;48.71;93886.26;106735;1276;22537;-78
2023/12/02 04:48:23;;;;;;;8.60;1.80;;;;;;;15.69;48.36;93882.45;106788;1276;25308;-77
2023/12/02 04:50:52;;;;;;;7.40;1.30;;;;;;;15.66;48.67;93882.42;106772;1276;24296;-79
2023/12/02 04:53:20;;;;;;;4.20;1.10;;;;;;;15.56;48.84;93888.23;106488;1276;25395;-77
2023/12/02 04:55:48;;;;;;;3.00;1.00;;;;;;;15.48;48.93;93881.48;106563;1276;22534;-77
2023/12/02 04:58:16;;;;;;;3.80;0.90;;;;;;;15.41;48.98;93885.35;106579;1276;25508;-77
2023/12/02 05:00:45;;;;;;;3.50;1.10;;;;;;;15.40;48.82;93886.45;106611;1276;22549;-79
2023/12/02 05:03:17;;;;;;;5.10;1.20;;;;;;;15.40;48.96;93885.56;106424;1276;25370;-77
2023/12/02 05:05:46;;;;;;;7.60;1.50;;;;;;;15.38;49.04;93890.30;106717;1276;22528;-77
2023/12/02 05:08:14;;;;;;;8.40;1.40;;;;;;;15.37;49.23;93893.55;106657;1276;22530;-79
2023/12/02 05:10:42;;;;;;;5.90;1.10;;;;;;;15.37;49.33;93886.98;106782;1276;25250;-77
2023/12/02 05:13:11;;;;;;;7.10;1.30;;;;;;;15.27;50.03;93880.52;106692;1276;22656;-78
2023/12/02 05:15:40;;;;;;;5.50;1.10;;;;;;;15.12;50.37;93882.38;106571;1276;24328;-78
2023/12/02 05:18:12;;;;;;;6.00;1.30;;;;;;;15.05;50.35;93891.48;106627;1276;22537;-78
2023/12/02 05:20:40;;;;;;;5.90;1.10;;;;;;;15.08;50.30;93887.62;106593;1276;22634;-78
2023/12/02 05:23:09;;;;;;;10.30;1.30;;;;;;;15.12;50.26;93891.09;106805;1276;24070;-77
2023/12/02 05:25:37;;;;;;;4.90;1.20;;;;;;;15.15;50.41;93880.08;106814;1276;22530;-77
2023/12/02 05:28:05;;;;;;;6.30;1.40;;;;;;;15.08;50.46;93877.33;106504;1276;24481;-78
2023/12/02 05:30:34;;;;;;;5.20;1.20;;;;;;;15.00;50.88;93874.86;106559;1276;22663;-76
2023/12/02 05:33:03;;;;;;;7.00;1.60;;;;;;;14.92;51.01;93867.00;106662;1276;25356;-78
2023/12/02 05:35:31;;;;;;;3.70;0.80;;;;;;;14.96;50.31;93860.91;106596;1276;25382;-77
2023/12/02 05:38:00;;;;;;;8.10;1.40;;;;;;;15.07;49.92;93860.75;106619;1276;22524;-78
2023/12/02 05:40:28;;;;;;;8.80;1.80;;;;;;;15.13;49.82;93862.27;106626;1276;22571;-79
2023/12/02 05:42:56;;;;;;;5.00;0.90;;;;;;;15.16;50.18;93862.67;106533;1276;25359;-78
2023/12/02 05:45:25;;;;;;;7.10;1.60;;;;;;;15.03;50.74;93862.77;106512;1276;25543;-78
2023/12/02 05:47:53;;;;;;;5.80;1.60;;;;;;;15.03;49.91;93862.28;106633;1276;24281;-77
2023/12/02 05:50:21;;;;;;;3.90;1.10;;;;;;;15.14;49.90;93849.51;106584;1276;22543;-77
2023/12/02 05:52:50;;;;;;;7.50;1.50;;;;;;;15.12;49.95;93846.93;106258;1268;206603;-78
2023/12/02 05:55:18;;;;;;;7.60;1.30;;;;;;;15.13;50.07;93851.66;106580;1276;22589;-77
2023/12/02 05:57:46;;;;;;;7.40;2.00;;;;;;;15.21;49.59;93848.73;106396;1276;25361;-78
2023/12/02 06:00:17;;;;;;;5.20;1.40;;;;;;;15.33;49.53;93840.64;106424;1276;26531;-78
2023/12/02 06:02:46;;;;;;;5.80;1.80;;;;;;;15.35;49.75;93843.55;106584;1276;25481;-78
2023/12/02 06:05:14;;;;;;;7.00;1.60;;;;;;;15.23;49.89;93845.01;106590;1273;25328;-78
2023/12/02 06:07:43;;;;;;;8.60;1.70;;;;;;;15.24;49.77;93850.45;106692;1276;22540;-78
2023/12/02 06:10:11;;;;;;;4.60;1.20;;;;;;;15.24;50.04;93858.93;106865;1276;23912;-77
2023/12/02 06:12:40;;;;;;;6.60;1.60;;;;;;;15.17;50.28;93857.66;106787;1276;24415;-78
2023/12/02 06:15:10;;;;;;;6.10;1.40;;;;;;;15.12;50.72;93866.80;106753;1276;22531;-78
2023/12/02 06:17:39;;;;;;;3.70;1.40;;;;;;;14.99;51.28;93867.63;106477;1276;22533;-77
2023/12/02 06:20:09;;;;;;;4.10;1.50;;;;;;;14.84;51.80;93871.58;106466;1276;24415;-78
2023/12/02 06:22:38;;;;;;;6.30;1.80;;;;;;;14.73;51.93;93875.09;106709;1276;24368;-78
2023/12/02 06:25:07;;;;;;;6.10;1.10;;;;;;;14.63;52.45;93876.23;106561;1276;22515;-78
2023/12/02 06:27:35;;;;;;;4.50;1.30;;;;;;;14.67;52.23;93878.66;106618;1276;24358;-79
2023/12/02 06:30:04;;;;;;;12.00;1.60;;;;;;;14.74;52.19;93881.79;106494;1276;25508;-78
2023/12/02 06:32:33;;;;;;;5.80;1.40;;;;;;;14.68;52.31;93881.73;106607;1276;24252;-77
2023/12/02 06:35:01;;;;;;;6.40;1.20;;;;;;;14.63;52.11;93878.92;106800;1276;25355;-78
2023/12/02 06:37:30;;;;;;;3.20;1.00;;;;;;;14.71;51.88;93874.89;106842;1276;25476;-78
2023/12/02 06:39:58;;;;;;;7.60;2.20;;;;;;;14.80;51.75;93868.69;106364;1276;22959;-78
2023/12/02 06:42:26;;;;;;;5.70;1.70;;;;;;;14.82;51.50;93863.56;106449;1276;22517;-78
2023/12/02 06:44:55;;;;;;;4.80;1.70;;;;;;;14.84;51.76;93862.53;106629;1276;22645;-78
2023/12/02 06:47:23;;;;;;;5.30;1.70;;;;;;;14.85;51.52;93864.07;106580;1276;22537;-78
2023/12/02 06:49:51;;;;;;;6.50;1.40;;;;;;;15.00;51.39;93859.60;106812;1276;24288;-79
2023/12/02 06:52:19;;;;;;;8.00;1.60;;;;;;;15.05;51.08;93859.63;106808;1276;22523;-78
2023/12/02 06:54:48;;;;;;;3.20;1.00;;;;;;;15.06;51.53;93859.20;106706;1276;22641;-78
2023/12/02 06:57:36;;;;;;;8.60;1.40;;;;;;;15.08;51.10;93861.41;106604;1265;24394;-78
2023/12/02 07:00:05;;;;;;;6.20;1.80;;;;;;;15.16;50.98;93863.19;106435;1276;22524;-78
2023/12/02 07:02:34;;;;;;;7.60;1.50;;;;;;;15.15;51.09;93868.55;106713;1276;24343;-78
2023/12/02 07:05:03;;;;;;;7.50;1.60;;;;;;;15.08;51.56;93877.11;106833;1276;25305;-78
2023/12/02 07:07:31;;;;;;;4.00;1.20;;;;;;;14.98;51.76;93881.31;106727;1274;22650;-78
2023/12/02 07:09:59;;;;;;;9.50;1.30;;;;;;;15.02;51.79;93878.80;106821;1276;22524;-77
2023/12/02 07:12:27;;;;;;;7.90;2.00;;;;;;;15.07;51.35;93888.88;106834;1276;25506;-77
2023/12/02 07:14:55;;;;;;;7.90;1.90;;;;;;;15.16;51.33;93887.98;106456;1276;24400;-78
2023/12/02 07:17:24;;;;;;;4.30;1.10;;;;;;;15.14;51.30;93896.77;106583;1265;23691;-77
2023/12/02 07:19:52;;;;;;;10.10;1.60;;;;;;;15.18;50.91;93910.34;106621;1276;25438;-79
2023/12/02 07:22:20;;;;;;;9.20;2.00;;;;;;;15.27;51.10;93926.05;106360;1276;25511;-78
2023/12/02 07:24:48;;;;;;;5.70;1.90;;;;;;;15.23;51.60;93928.80;106633;1276;25512;-78
2023/12/02 07:27:16;;;;;;;6.90;1.40;;;;;;;15.20;51.36;93920.30;106619;1276;24270;-79
2023/12/02 07:29:45;;;;;;;8.20;1.60;;;;;;;15.24;51.21;93925.52;106544;1276;22644;-77
2023/12/02 07:32:16;;;;;;;9.20;1.50;;;;;;;15.41;50.70;93920.27;106615;1276;24201;-77
2023/12/02 07:34:44;;;;;;;5.40;1.30;;;;;;;15.57;50.33;93911.58;106617;1276;22536;-77
2023/12/02 07:37:13;;;;;;;4.50;1.40;;;;;;;15.70;50.06;93906.69;106551;1276;25513;-79
2023/12/02 07:39:41;;;;;;;8.00;1.30;;;;;;;15.82;49.47;93922.35;106601;1276;25439;-78
2023/12/02 07:42:09;;;;;;;5.00;1.40;;;;;;;15.94;49.32;93916.07;106561;1276;24202;-77
2023/12/02 07:44:37;;;;;;;5.60;1.10;;;;;;;16.00;49.62;93922.07;106580;1276;22537;-78
2023/12/02 07:47:05;;;;;;;6.60;1.30;;;;;;;15.95;50.14;93925.42;106504;1276;25422;-77
2023/12/02 07:49:34;;;;;;;4.80;1.40;;;;;;;15.85;50.68;93926.63;106580;1276;25497;-78
2023/12/02 07:52:03;;;;;;;7.40;1.50;;;;;;;15.77;50.71;93925.69;106714;1276;25256;-77
2023/12/02 07:54:31;;;;;;;6.50;1.60;;;;;;;15.78;50.48;93930.10;106521;1274;22532;-78
2023/12/02 07:56:59;;;;;;;5.70;1.10;;;;;;;15.77;51.16;93932.77;106582;1276;25407;-78
2023/12/02 07:59:28;;;;;;;5.00;1.80;;;;;;;15.78;50.67;93938.76;106688;1276;22576;-78
2023/12/02 08:01:56;;;;;;;5.40;1.10;;;;;;;15.76;51.15;93934.09;106646;1276;25602;-78
2023/12/02 08:04:25;;;;;;;5.00;1.00;;;;;;;15.79;50.44;93921.16;106403;1276;25432;-79
2023/12/02 08:06:53;;;;;;;6.60;1.60;;;;;;;15.93;49.26;93932.79;106624;1276;22554;-78
2023/12/02 08:09:21;;;;;;;6.00;1.60;;;;;;;16.04;49.06;93941.66;106603;1276;25432;-77
2023/12/02 08:11:49;;;;;;;5.60;2.00;;;;;;;16.08;48.86;93927.23;106539;1276;24340;-77
2023/12/02 08:14:17;;;;;;;7.90;2.30;;;;;;;16.07;49.53;93915.98;106663;1276;23901;-78
2023/12/02 08:16:46;;;;;;;8.50;1.70;;;;;;;16.02;49.75;93913.09;106568;1276;23887;-77
2023/12/02 08:19:16;;;;;;;8.90;1.70;;;;;;;15.97;49.99;93913.24;106657;1276;25508;-78
2023/12/02 08:21:44;;;;;;;10.20;3.40;;;;;;;15.92;50.32;93912.13;106696;1276;22709;-77
2023/12/02 08:24:13;;;;;;;8.30;2.10;;;;;;;15.86;50.33;93924.11;106442;1276;22527;-77
2023/12/02 08:26:41;;;;;;;8.20;2.00;;;;;;;15.87;49.38;93920.25;106410;1276;22538;-77
2023/12/02 08:29:10;;;;;;;6.20;1.50;;;;;;;16.04;48.73;93914.55;106632;1276;22630;-78
2023/12/02 08:31:38;;;;;;;8.90;1.80;;;;;;;16.15;49.40;93908.70;106851;1276;23881;-77
2023/12/02 08:34:06;;;;;;;8.10;1.60;;;;;;;16.25;48.22;93899.48;106822;1276;22536;-78
2023/12/02 08:36:43;;;;;;;7.70;1.20;;;;;;;16.43;47.26;93904.66;106740;1276;22642;-77
2023/12/02 08:39:11;;;;;;;6.20;1.60;;;;;;;16.58;47.51;93917.30;106588;1276;22526;-78
2023/12/02 08:41:39;;;;;;;9.10;2.20;;;;;;;16.82;46.38;93920.42;106433;1276;22641;-77
2023/12/02 08:44:08;;;;;;;8.80;1.90;;;;;;;17.00;46.33;93916.88;106573;1276;25654;-78
2023/12/02 08:46:40;;;;;;;5.50;1.20;;;;;;;17.12;45.43;93909.49;106843;1276;22517;-78
2023/12/02 08:49:09;;;;;;;4.00;1.20;;;;;;;17.21;44.70;93927.48;106710;1276;22533;-78
2023/12/02 08:51:39;;;;;;;6.10;1.20;;;;;;;17.28;44.63;93921.96;106670;1276;22523;-78
2023/12/02 08:54:08;;;;;;;3.90;0.90;;;;;;;17.38;43.99;93921.86;106910;1276;22650;-79
2023/12/02 08:56:36;;;;;;;6.90;1.30;;;;;;;17.41;43.70;93923.36;106668;1276;22532;-78
2023/12/02 08:59:04;;;;;;;4.60;1.10;;;;;;;17.41;43.31;93926.76;106567;1276;24244;-77
2023/12/02 09:01:33;;;;;;;5.30;1.30;;;;;;;17.40;43.16;93919.42;106766;1276;24486;-77
2023/12/02 09:04:01;;;;;;;7.70;1.50;;;;;;;17.37;43.40;93925.44;106670;1276;24266;-78
2023/12/02 09:06:30;;;;;;;5.20;1.10;;;;;;;17.30;43.87;93920.98;106471;1276;22654;-78
2023/12/02 09:08:58;;;;;;;8.80;2.10;;;;;;;17.23;44.52;93920.02;106430;1276;22640;-78
2023/12/02 09:11:26;;;;;;;21.90;1.90;;;;;;;17.13;44.66;93908.68;106632;1276;22532;-78
2023/12/02 09:13:54;;;;;;;7.30;1.50;;;;;;;17.04;45.12;93915.15;106402;1276;25317;-78
2023/12/02 09:16:26;;;;;;;5.20;1.10;;;;;;;16.99;44.59;93910.73;106400;1276;22565;-77
2023/12/02 09:18:55;;;;;;;9.60;2.80;;;;;;;16.97;44.54;93902.70;106646;1276;22572;-78
2023/12/02 09:21:41;;;;;;;7.30;1.80;;;;;;;16.94;45.01;93904.54;106656;1276;22537;-78
2023/12/02 09:24:36;;;;;;;6.10;1.30;;;;;;;16.87;45.51;93906.56;106740;1276;22658;-79
2023/12/02 09:27:06;;;;;;;6.40;1.30;;;;;;;16.81;45.11;93909.68;106590;1276;25600;-77
2023/12/02 09:29:37;;;;;;;5.90;1.30;;;;;;;16.82;44.28;93909.65;106589;1276;22529;-79
2023/12/02 09:32:25;;;;;;;7.50;1.50;;;;;;;16.89;43.59;93909.13;106677;1276;22532;-79
2023/12/02 09:34:59;;;;;;;6.00;1.40;;;;;;;16.91;43.91;93902.64;106457;1276;22636;-78
2023/12/02 09:37:40;;;;;;;6.50;1.20;;;;;;;16.89;44.01;93904.36;106614;1276;25468;-79
2023/12/02 09:40:21;;;;;;;5.70;1.30;;;;;;;16.86;44.09;93908.11;106659;1276;26736;-78
2023/12/02 09:42:56;;;;;;;8.20;1.60;;;;;;;16.86;44.15;93907.73;106586;1276;24230;-78
2023/12/02 09:45:44;;;;;;;8.80;1.60;;;;;;;16.89;44.12;93903.10;106635;1276;22529;-78
2023/12/02 09:48:42;;;;;;;8.70;1.20;;;;;;;16.89;44.04;93894.40;106578;1276;22521;-78
2023/12/02 09:51:16;;;;;;;5.20;1.10;;;;;;;16.90;43.87;93889.23;106580;1276;23948;-78
2023/12/02 09:53:57;;;;;;;6.80;1.50;;;;;;;16.89;43.86;93885.71;106680;1276;22645;-78
2023/12/02 09:56:32;;;;;;;5.80;2.00;;;;;;;16.93;43.50;93881.84;106596;1276;25362;-78
2023/12/02 09:59:18;;;;;;;9.20;2.60;;;;;;;16.95;43.81;93884.75;106631;1276;23002;-77
2023/12/02 10:02:03;;;;;;;5.30;1.30;;;;;;;16.95;43.68;93882.05;106550;1276;24066;-77
2023/12/02 10:04:40;;;;;;;5.70;1.10;;;;;;;16.96;44.06;93876.87;106581;1266;25421;-77
2023/12/02 10:07:09;;;;;;;7.00;1.20;;;;;;;16.97;43.94;93878.01;106613;1276;24203;-78
2023/12/02 10:09:48;;;;;;;7.70;1.80;;;;;;;17.02;44.06;93873.77;106590;1276;22572;-77
2023/12/02 10:12:32;;;;;;;4.40;1.40;;;;;;;17.04;44.44;93860.67;106639;1274;22538;-78
2023/12/02 10:15:05;;;;;;;6.60;1.60;;;;;;;17.05;43.54;93858.84;106730;1276;22542;-78
2023/12/02 10:17:49;;;;;;;6.60;2.90;;;;;;;17.09;43.54;93852.80;106664;1276;22619;-78
2023/12/02 10:20:26;;;;;;;6.90;1.40;;;;;;;17.16;43.47;93858.89;106673;1276;22769;-80
2023/12/02 10:22:59;;;;;;;11.50;3.90;;;;;;;17.22;43.09;93867.88;106729;1276;25300;-78
2023/12/02 10:25:42;;;;;;;9.00;3.60;;;;;;;17.25;43.92;93858.56;106479;1276;25297;-78
2023/12/02 10:28:21;;;;;;;6.80;2.00;;;;;;;17.29;44.58;93861.33;106627;1276;25440;-77
2023/12/02 10:30:58;;;;;;;9.20;1.80;;;;;;;17.39;44.79;93874.31;106521;1276;22530;-78
2023/12/02 10:33:32;;;;;;;5.40;1.40;;;;;;;17.60;44.75;93860.81;106560;1276;24225;-77
2023/12/02 10:36:05;;;;;;;7.50;1.80;;;;;;;17.95;45.28;93863.11;106648;1276;25444;-77
2023/12/02 10:39:02;;;;;;;7.20;1.40;;;;;;;18.27;43.86;93853.55;106490;1276;23025;-79
2023/12/02 10:42:03;;;;;;;11.10;1.40;;;;;;;18.44;40.89;93847.49;106591;1276;22532;-80
2023/12/02 10:44:33;;;;;;;8.20;2.40;;;;;;;18.49;41.25;93843.48;106677;1276;22527;-79
2023/12/02 10:47:05;;;;;;;11.40;2.10;;;;;;;18.52;42.15;93847.90;106605;1276;22521;-78
2023/12/02 10:49:34;;;;;;;11.30;1.60;;;;;;;18.49;41.00;93840.85;106667;1276;25823;-79
2023/12/02 10:52:04;;;;;;;6.20;1.40;;;;;;;18.43;41.33;93841.66;106544;1276;25388;-78
2023/12/02 10:54:41;;;;;;;7.60;1.70;;;;;;;18.36;40.51;93844.33;106632;1276;22546;-79
2023/12/02 10:57:10;;;;;;;5.70;1.20;;;;;;;18.32;40.52;93839.43;106704;1276;25506;-79
2023/12/02 10:59:54;;;;;;;10.80;1.50;;;;;;;18.31;41.31;93846.44;106628;1276;22903;-76
2023/12/02 11:02:34;;;;;;;6.70;1.50;;;;;;;18.29;40.74;93845.20;106664;1276;22560;-78
2023/12/02 11:05:20;;;;;;;8.00;1.60;;;;;;;18.24;40.19;93844.88;106550;1274;22516;-78
2023/12/02 11:07:58;;;;;;;6.40;1.40;;;;;;;18.18;40.11;93842.83;106624;1276;22553;-76
2023/12/02 11:10:35;;;;;;;9.80;1.90;;;;;;;18.11;40.27;93839.30;106670;1276;24282;-77
2023/12/02 11:13:12;;;;;;;7.40;1.40;;;;;;;18.09;40.80;93838.40;106637;1276;22542;-78
2023/12/02 11:15:47;;;;;;;18.80;2.00;;;;;;;18.08;39.93;93835.05;106627;1276;22538;-77
2023/12/02 11:18:24;;;;;;;10.40;2.20;;;;;;;18.05;40.43;93832.79;106666;1276;22643;-76
2023/12/02 11:20:59;;;;;;;9.80;1.20;;;;;;;18.03;40.43;93843.09;106619;1276;24278;-76
2023/12/02 11:23:39;;;;;;;9.40;1.30;;;;;;;18.00;40.27;93825.73;106692;1276;22561;-76
2023/12/02 11:26:25;;;;;;;7.80;1.50;;;;;;;17.98;40.22;93821.95;106593;1276;25515;-79
2023/12/02 11:29:09;;;;;;;7.90;1.80;;;;;;;17.96;40.35;93827.46;106561;1276;24398;-77
2023/12/02 11:32:44;;;;;;;10.40;2.70;;;;;;;17.96;40.29;93825.84;106625;1276;22530;-77
2023/12/02 11:35:25;;;;;;;7.20;1.30;;;;;;;17.94;40.43;93827.53;106423;1276;22555;-76
2023/12/02 11:38:11;;;;;;;15.80;4.20;;;;;;;17.93;40.09;93821.07;106568;1276;22530;-78
2023/12/02 11:41:04;;;;;;;13.40;2.00;;;;;;;17.96;40.83;93822.66;106594;1276;22507;-77